Latest Coastal Weather Observations for Rundle Island

IDQ60701

Issued at 12:42 am EST Sunday 30 August 2015 (issued every 10 minutes, with the page automatically refreshed every 10 minutes)

About coastal observations | Map of coastal stations | Coastal observations for QLD | Marine services | Other Formats
Station Details ID: 039322 Name: RUNDLE ISLAND Lat: -23.53 Lon: 151.28 Height: 19.8 m
Data from the previous 72 hours. | See also: Recent months at Rundle Island
Date/Time
EST
Temp

°C
Wind Pressure Rain
since 9am
mm
Weather Cloud Vis
km
Sea
Height
m
Swell
Dir
 
Speed
knots
Gust
knots
hPa Trend Height
m
Period
s
Dir
30/12:30am 19.1 ESE 8 9 1018.5 - - - - - - - - -
30/12:00am 20.2 SSE 10 11 1018.4 - - - - - - - - -
 
Date/Time
EST
Temp

°C
Wind Pressure Rain
since 9am
mm
Weather Cloud Vis
km
Sea
Height
m
Swell
Dir
 
Speed
knots
Gust
knots
hPa Trend Height
m
Period
s
Dir
29/11:30pm 20.8 SSE 8 8 1018.5 - - - - - - - - -
29/11:00pm 20.9 SSE 5 6 1018.5 - - - - - - - - -
29/10:30pm 21.1 SE 4 4 1018.5 - - - - - - - - -
29/10:00pm 21.0 E 4 5 1018.4 - - - - - - - - -
29/09:30pm 21.1 E 6 7 1018.4 - - - - - - - - -
29/09:00pm 21.0 E 7 8 1018.3 - - - - - - - - -
29/08:30pm 21.0 E 8 9 1018.1 - - - - - - - - -
29/08:00pm 20.9 E 7 7 1018.2 - - - - - - - - -
29/07:30pm 21.0 E 7 8 1018.0 - - - - - - - - -
29/07:00pm 21.1 ENE 7 8 1017.7 - - - - - - - - -
29/06:30pm 21.1 NE 8 9 1017.4 - - - - - - - - -
29/06:00pm 21.1 NE 9 11 1017.1 - - - - - - - - -
29/05:30pm 21.3 NE 8 10 1017.1 - - - - - - - - -
29/05:00pm 21.3 ENE 8 9 1017.0 - - - - - - - - -
29/04:30pm 21.4 ENE 8 10 1016.9 - - - - - - - - -
29/04:00pm 21.5 ENE 10 11 1016.8 - - - - - - - - -
29/03:30pm 21.5 E 9 10 1017.1 - - - - - - - - -
29/03:00pm 21.6 E 9 11 1017.5 - - - - - - - - -
29/02:30pm 21.7 E 10 11 1017.9 - - - - - - - - -
29/02:00pm 21.8 E 7 8 1018.6 - - - - - - - - -
29/01:30pm 21.6 ESE 8 9 1018.9 - - - - - - - - -
29/01:00pm 21.7 ESE 9 10 1019.3 - - - - - - - - -
29/12:30pm 21.4 ESE 9 11 1019.8 - - - - - - - - -
29/12:00pm 21.1 ESE 10 11 1020.2 - - - - - - - - -
29/11:30am 21.0 ESE 11 12 1020.6 - - - - - - - - -
29/11:00am 20.6 SE 8 9 1021.1 - - - - - - - - -
29/10:30am 20.6 SE 9 10 1021.6 - - - - - - - - -
29/10:00am 20.9 SE 10 11 1021.6 - - - - - - - - -
29/09:30am 21.1 SSE 9 10 1021.6 - - - - - - - - -
29/09:00am 20.9 SE 9 10 1021.5 - - - - - - - - -
29/08:30am 20.7 SE 8 9 1021.0 - - - - - - - - -
29/08:00am 20.4 S 6 7 1020.8 - - - - - - - - -
29/07:30am 20.3 S 6 7 1020.7 - - - - - - - - -
29/07:00am 20.4 SSE 6 7 1020.4 - - - - - - - - -
29/06:30am 20.2 SSE 5 6 1020.0 - - - - - - - - -
29/06:00am 20.2 S 5 5 1020.0 - - - - - - - - -
29/05:30am 20.3 SE 2 3 1019.7 - - - - - - - - -
29/05:00am 20.2 SE 3 4 1019.4 - - - - - - - - -
29/04:30am 20.2 S 3 4 1019.4 - - - - - - - - -
29/04:00am 20.1 SSW 3 3 1019.2 - - - - - - - - -
29/03:30am 20.2 S 4 5 1019.2 - - - - - - - - -
29/03:00am 20.3 S 4 5 1019.3 - - - - - - - - -
29/02:30am 20.4 SE 5 5 1019.5 - - - - - - - - -
29/02:00am 20.4 SSE 3 4 1019.8 - - - - - - - - -
29/01:30am 20.4 SE 3 4 1020.1 - - - - - - - - -
29/01:00am 20.3 SE 4 4 1020.0 - - - - - - - - -
29/12:30am 20.3 S 2 3 1020.4 - - - - - - - - -
29/12:00am 20.3 SSW 3 3 1020.8 - - - - - - - - -
 
Date/Time
EST
Temp

°C
Wind Pressure Rain
since 9am
mm
Weather Cloud Vis
km
Sea
Height
m
Swell
Dir
 
Speed
knots
Gust
knots
hPa Trend Height
m
Period
s
Dir
28/11:30pm 20.2 CALM 0 0 1020.6 - - - - - - - - -
28/11:00pm 20.4 CALM 0 0 1020.5 - - - - - - - - -
28/10:30pm 20.5 CALM 0 0 1020.5 - - - - - - - - -
28/10:00pm 20.9 N 3 3 1020.5 - - - - - - - - -
28/09:30pm 21.1 N 3 4 1020.5 - - - - - - - - -
28/09:00pm 21.2 NNE 3 4 1020.5 - - - - - - - - -
28/08:30pm 21.2 NE 6 7 1020.1 - - - - - - - - -
28/08:00pm 21.4 NE 6 7 1019.8 - - - - - - - - -
28/07:30pm 21.3 NE 7 7 1019.5 - - - - - - - - -
28/07:00pm 21.4 NE 8 9 1019.2 - - - - - - - - -
28/06:30pm 21.3 NE 8 9 1018.9 - - - - - - - - -
28/06:00pm 21.4 NNE 8 9 1018.8 - - - - - - - - -
28/05:30pm 21.6 NE 7 9 1018.6 - - - - - - - - -
28/05:00pm 21.8 NE 9 9 1018.1 - - - - - - - - -
28/04:30pm 22.1 NE 7 9 1017.6 - - - - - - - - -
28/04:00pm 23.2 NE 6 8 1017.4 - - - - - - - - -
28/03:30pm 22.4 NE 7 9 1017.4 - - - - - - - - -
28/03:00pm 22.3 NE 7 8 1017.6 - - - - - - - - -
28/02:30pm 22.6 NE 7 8 1018.0 - - - - - - - - -
28/02:00pm 22.5 NE 7 8 1018.4 - - - - - - - - -
28/01:30pm 23.5 NE 4 5 1018.9 - - - - - - - - -
28/01:00pm 23.4 ENE 4 5 1019.3 - - - - - - - - -
28/12:30pm 23.3 E 4 5 1019.7 - - - - - - - - -
28/12:00pm 23.5 ESE 4 5 1020.1 - - - - - - - - -
28/11:30am 22.4 E 6 6 1020.7 - - - - - - - - -
28/11:00am 22.6 ESE 6 7 1021.1 - - - - - - - - -
28/10:30am 22.1 ESE 6 6 1021.5 - - - - - - - - -
28/10:00am 22.6 SE 4 5 1021.6 - - - - - - - - -
28/09:30am 21.9 S 2 3 1021.7 - - - - - - - - -
28/09:00am 21.0 SSW 2 3 1021.7 - - - - - - - - -
28/08:30am 20.4 SSW 2 3 1021.8 - - - - - - - - -
28/08:00am 20.1 SW 3 4 1021.6 - - - - - - - - -
28/07:30am 19.8 SSW 7 8 1020.9 - - - - - - - - -
28/07:00am 19.6 SSW 4 5 1020.6 - - - - - - - - -
28/06:30am 19.5 SSW 4 5 1020.2 - - - - - - - - -
28/06:00am 19.4 S 5 5 1019.9 - - - - - - - - -
28/05:30am 19.7 S 6 7 1019.8 - - - - - - - - -
28/05:00am 19.7 S 5 6 1019.4 - - - - - - - - -
28/04:30am 19.7 S 4 5 1019.3 - - - - - - - - -
28/04:00am 19.7 SSW 6 6 1019.3 - - - - - - - - -
28/03:30am 20.0 SW 4 5 1019.2 - - - - - - - - -
28/03:00am 20.1 S 1 5 1019.3 - - - - - - - - -
28/02:30am 20.2 E 1 2 1019.2 - - - - - - - - -
28/02:00am 20.1 E 4 4 1019.2 - - - - - - - - -
28/01:30am 20.2 S 2 2 1019.8 - - - - - - - - -
28/01:00am 20.1 S 3 3 1020.0 - - - - - - - - -
28/12:30am 20.2 S 3 3 1020.2 - - - - - - - - -
28/12:00am 20.3 SSW 4 4 1020.6 - - - - - - - - -
 
Date/Time
EST
Temp

°C
Wind Pressure Rain
since 9am
mm
Weather Cloud Vis
km
Sea
Height
m
Swell
Dir
 
Speed
knots
Gust
knots
hPa Trend Height
m
Period
s
Dir
27/11:30pm 20.6 CALM 0 0 1020.7 - - - - - - - - -
27/11:00pm 20.4 SSW 3 3 1021.0 - - - - - - - - -
27/10:30pm 20.6 SSW 3 4 1021.1 - - - - - - - - -
27/10:00pm 21.1 NNW 2 3 1021.2 - - - - - - - - -
27/09:30pm 21.2 N 6 7 1021.1 - - - - - - - - -
27/09:00pm 21.5 NNE 9 10 1020.8 - - - - - - - - -
27/08:30pm 21.5 NNE 8 9 1020.6 - - - - - - - - -
27/08:00pm 21.5 NE 9 11 1020.4 - - - - - - - - -
27/07:30pm 21.5 NE 9 10 1020.2 - - - - - - - - -
27/07:00pm 21.5 NE 9 10 1019.8 - - - - - - - - -
27/06:30pm 21.5 NE 9 10 1019.6 - - - - - - - - -
27/06:00pm 21.5 ENE 8 8 1019.4 - - - - - - - - -
27/05:30pm 21.7 NE 10 11 1019.0 - - - - - - - - -
27/05:00pm 21.9 NE 9 10 1018.8 - - - - - - - - -
27/04:30pm 22.3 NE 8 9 1018.7 - - - - - - - - -
27/04:00pm 23.1 NE 5 7 1018.8 - - - - - - - - -
27/03:30pm 24.0 NE 4 5 1018.8 - - - - - - - - -
27/03:00pm 23.5 NNE 5 5 1018.7 - - - - - - - - -
27/02:30pm 22.2 N 6 6 1018.9 - - - - - - - - -
27/02:00pm 22.3 N 5 6 1019.1 - - - - - - - - -
27/01:30pm 21.9 N 5 6 1019.2 - - - - - - - - -
27/01:00pm 22.0 N 4 5 1019.8 - - - - - - - - -
27/12:30pm 23.1 N 1 4 1020.3 - - - - - - - - -
27/12:00pm 22.7 CALM 0 0 1020.7 - - - - - - - - -
27/11:30am 22.6 CALM 0 0 1021.1 - - - - - - - - -
27/11:00am 23.1 CALM 0 0 1021.3 - - - - - - - - -
27/10:30am 23.6 CALM 0 0 1021.6 - - - - - - - - -
27/10:00am 22.8 SSW 2 3 1022.0 - - - - - - - - -
27/09:30am 23.7 CALM 0 2 1022.2 - - - - - - - - -
27/09:00am 23.4 ESE 2 3 1022.1 - - - - - - - - -
27/08:30am 21.9 ESE 3 4 1021.9 - - - - - - - - -
27/08:00am 21.7 SE 2 2 1021.9 - - - - - - - - -
27/07:30am 21.6 ESE 3 3 1021.4 - - - - - - - - -
27/07:00am 20.5 ESE 5 5 1020.8 - - - - - - - - -
27/06:30am 20.2 ESE 4 4 1020.6 - - - - - - - - -
27/06:00am 20.0 ESE 4 5 1020.3 - - - - - - - - -
27/05:30am 20.0 ESE 6 6 1019.7 - - - - - - - - -
27/05:00am 19.9 CALM 0 0 1019.9 - - - - - - - - -
27/04:30am 19.8 CALM 0 0 1019.9 - - - - - - - - -
27/04:00am 19.5 CALM 0 0 1020.0 - - - - - - - - -
27/03:30am 19.6 CALM 0 0 1020.0 - - - - - - - - -
27/03:00am 19.6 CALM 0 0 1020.2 - - - - - - - - -
27/02:30am 19.8 CALM 0 0 1020.3 - - - - - - - - -
27/02:00am 20.4 CALM 0 1 1020.5 - - - - - - - - -
27/01:30am 20.7 N 2 3 1020.8 - - - - - - - - -
27/01:00am 20.7 N 3 4 1021.0 - - - - - - - - -

Other Formats:

Comma delimited format used in spreadsheet applications
http://www.bom.gov.au/fwo/IDQ60701/IDQ60701.94378.axf

JavaScript Object Notation format (JSON) in row-major order
http://www.bom.gov.au/fwo/IDQ60701/IDQ60701.94378.json